Weather at Watchford Farm Airstrip

Public forecast

Using degrees Celsius for public forecast. Weather courtesy of forecast.io.

Closest aviation weather report (METAR) to Watchford Farm Airstrip

Closest report is Exeter International Airport, 15.7 nm (29.0 km) SW. Retrieved 2021/08/04 14:50 UTC (13 minutes ago):

EGTE 041450Z 18007KT 150V210 9999 FEW035 22/10 Q1012

Closest aviation forecast (TAF) to Watchford Farm Airstrip

Forecast is more than 12 hours old.

Closest forecast is Exeter International Airport, 15.7 nm (29.0 km) SW. Retrieved 2012/04/19 12:15 UTC (9 years ago):

TAF TAF EGTE 191401Z 1912/1924 31016KT 9999 SCT030 SCT035 PROB40 TEMPO 1915/1918 7000 SHRA BKN014